Time;durP1;ratioP1;P1;durP2;ratioP2;P2;SDS_P1;SDS_P2;PMS_P1;PMS_P2;Temp;Humidity;BMP_temperature;BMP_pressure;BME280_temperature;BME280_humidity;BME280_pressure;Samples;Min_cycle;Max_cycle;Signal;HPM_P1;HPM_P2
2022/03/06 00:02:15;;;;;;;;;;;;;;;-1.21;83.21;99935.80;1763387;81;20078;-66
2022/03/06 00:04:42;;;;;;;;;;;;;;;-1.20;82.48;99939.61;1763371;81;20067;-66
2022/03/06 00:07:08;;;;;;;;;;;;;;;-1.20;82.59;99935.58;1763600;81;21099;-66
2022/03/06 00:09:35;;;;;;;;;;;;;;;-1.20;82.70;99932.88;1763354;81;20094;-66
2022/03/06 00:12:04;;;;;;;;;;;;;;;-1.19;82.44;99937.22;1763325;81;20110;-66
2022/03/06 00:14:30;;;;;;;;;;;;;;;-1.18;82.29;99939.39;1763257;80;20102;-67
2022/03/06 00:16:56;;;;;;;;;;;;;;;-1.18;82.64;99938.04;1763693;81;20158;-67
2022/03/06 00:19:23;;;;;;;;;;;;;;;-1.17;82.24;99941.85;1763380;81;21099;-67
2022/03/06 00:21:50;;;;;;;;;;;;;;;-1.18;81.89;99943.43;1763248;80;20091;-67
2022/03/06 00:24:16;;;;;;;;;;;;;;;-1.20;82.13;99945.53;1763597;81;20142;-67
2022/03/06 00:26:43;;;;;;;;;;;;;;;-1.21;82.17;99946.05;1763391;81;20079;-67
2022/03/06 00:29:09;;;;;;;;;;;;;;;-1.21;82.03;99940.67;1763601;81;20083;-67
2022/03/06 00:31:35;;;;;;;;;;;;;;;-1.21;82.23;99947.92;1763404;81;21125;-67
2022/03/06 00:34:02;;;;;;;;;;;;;;;-1.22;82.47;99940.37;1709414;81;20119;-66
2022/03/06 00:36:28;;;;;;;;;;;;;;;-1.20;82.32;99944.19;1763686;81;20095;-67
2022/03/06 00:38:55;;;;;;;;;;;;;;;-1.20;82.00;99942.31;1763266;81;20884;-67
2022/03/06 00:41:23;;;;;;;;;;;;;;;-1.17;81.92;99944.55;1763340;81;20437;-67
2022/03/06 00:43:51;;;;;;;;;;;;;;;-1.15;82.01;99945.63;1739767;81;21205;-67
2022/03/06 00:46:17;;;;;;;;;;;;;;;-1.15;81.72;99945.11;1733063;83;20073;-66
2022/03/06 00:48:44;;;;;;;;;;;;;;;-1.16;81.68;99945.37;1732996;83;20081;-66
2022/03/06 00:51:12;;;;;;;;;;;;;;;-1.17;81.85;99946.42;1733009;83;20586;-67
2022/03/06 00:53:38;;;;;;;;;;;;;;;-1.17;81.74;99947.77;1733171;83;20130;-66
2022/03/06 00:56:05;;;;;;;;;;;;;;;-1.18;81.36;99939.39;1733047;83;21787;-66
2022/03/06 00:58:32;;;;;;;;;;;;;;;-1.19;81.45;99943.95;1733040;83;20424;-66
2022/03/06 01:00:58;;;;;;;;;;;;;;;-1.18;81.82;99940.73;1733048;83;20112;-66
2022/03/06 01:03:25;;;;;;;;;;;;;;;-1.18;81.32;99944.77;1732980;83;20109;-66
2022/03/06 01:05:51;;;;;;;;;;;;;;;-1.18;81.12;99946.95;1733417;83;20097;-66
2022/03/06 01:08:17;;;;;;;;;;;;;;;-1.17;81.50;99945.07;1733027;83;21142;-66
2022/03/06 01:10:45;;;;;;;;;;;;;;;-1.18;81.38;99945.59;1733180;83;20425;-66
2022/03/06 01:13:13;;;;;;;;;;;;;;;-1.18;81.00;99947.47;1732993;81;20093;-67
2022/03/06 01:15:40;;;;;;;;;;;;;;;-1.23;81.37;99941.95;1733077;83;20093;-65
2022/03/06 01:18:07;;;;;;;;;;;;;;;-1.29;81.32;99949.59;1704280;83;20144;-66
2022/03/06 01:20:34;;;;;;;;;;;;;;;-1.36;81.09;99946.47;1733253;83;21233;-66
2022/03/06 01:23:00;;;;;;;;;;;;;;;-1.43;81.48;99952.98;1733110;83;20427;-67
2022/03/06 01:25:27;;;;;;;;;;;;;;;-1.47;82.20;99955.84;1733065;83;20120;-66
2022/03/06 01:27:54;;;;;;;;;;;;;;;-1.49;82.51;99956.06;1732965;83;20880;-66
2022/03/06 01:30:21;;;;;;;;;;;;;;;-1.51;82.83;99952.78;1733138;83;20474;-66
2022/03/06 01:32:48;;;;;;;;;;;;;;;-1.51;83.12;99948.73;1733207;83;20574;-66
2022/03/06 01:35:14;;;;;;;;;;;;;;;-1.51;82.98;99953.30;1733206;83;20435;-66
2022/03/06 01:37:41;;;;;;;;;;;;;;;-1.53;83.15;99954.05;1733263;83;20141;-67
2022/03/06 01:40:08;;;;;;;;;;;;;;;-1.54;83.39;99954.58;1733068;83;20116;-67
2022/03/06 01:42:43;;;;;;;;;;;;;;;-1.55;83.55;99950.77;1733349;83;20089;-67
2022/03/06 01:45:10;;;;;;;;;;;;;;;-1.57;83.64;99948.30;1732993;83;21117;-67
2022/03/06 01:47:41;;;;;;;;;;;;;;;-1.57;83.98;99948.83;1733106;83;20463;-67
2022/03/06 01:50:11;;;;;;;;;;;;;;;-1.57;83.92;99956.37;1732988;83;20093;-67
2022/03/06 01:52:40;;;;;;;;;;;;;;;-1.56;83.78;99945.08;1724566;83;20097;-67
2022/03/06 01:55:07;;;;;;;;;;;;;;;-1.58;83.36;99949.34;1733340;83;20713;-67
2022/03/06 01:57:33;;;;;;;;;;;;;;;-1.59;83.10;99949.05;1732982;83;21209;-66
2022/03/06 02:00:05;;;;;;;;;;;;;;;-1.60;83.07;99951.44;1733289;83;20096;-66
2022/03/06 02:02:33;;;;;;;;;;;;;;;-1.61;82.87;99948.45;1732096;83;20451;-66
2022/03/06 02:05:00;;;;;;;;;;;;;;;-1.59;82.55;99954.95;1733144;83;20423;-67
2022/03/06 02:07:27;;;;;;;;;;;;;;;-1.60;82.57;99950.09;1732996;83;20116;-68
2022/03/06 02:09:54;;;;;;;;;;;;;;;-1.60;82.60;99951.97;1732953;83;21100;-65
2022/03/06 02:12:23;;;;;;;;;;;;;;;-1.61;82.57;99950.33;1740817;80;20077;-65
2022/03/06 02:14:51;;;;;;;;;;;;;;;-1.64;82.40;99951.59;1761876;80;20082;-65
2022/03/06 02:17:18;;;;;;;;;;;;;;;-1.68;82.48;99944.50;1762000;81;20095;-65
2022/03/06 02:19:57;;;;;;;;;;;;;;;-1.69;82.54;99947.41;1762207;81;20103;-65
2022/03/06 02:22:26;;;;;;;;;;;;;;;-1.71;82.48;99946.81;1762459;81;21793;-65
2022/03/06 02:24:52;;;;;;;;;;;;;;;-1.74;82.63;99937.88;1781628;79;20089;-65
2022/03/06 02:27:19;;;;;;;;;;;;;;;-1.75;83.00;99942.44;1774293;80;20085;-65
2022/03/06 02:29:45;;;;;;;;;;;;;;;-1.75;83.68;99949.69;1765011;81;20118;-65
2022/03/06 02:32:15;;;;;;;;;;;;;;;-1.75;84.31;99952.38;1765375;81;20085;-65
2022/03/06 02:34:43;;;;;;;;;;;;;;;-1.78;84.88;99953.66;1703505;82;21111;-65
2022/03/06 02:37:10;;;;;;;;;;;;;;;-1.79;85.11;99951.19;1755863;80;20077;-65
2022/03/06 02:39:36;;;;;;;;;;;;;;;-1.78;85.15;99960.39;1765978;81;20320;-65
2022/03/06 02:42:03;;;;;;;;;;;;;;;-1.76;85.28;99960.16;1781999;80;20108;-65
2022/03/06 02:44:30;;;;;;;;;;;;;;;-1.77;85.12;99963.90;1783049;80;20447;-66
2022/03/06 02:46:56;;;;;;;;;;;;;;;-1.77;85.21;99957.17;1779243;80;20552;-66
2022/03/06 02:49:25;;;;;;;;;;;;;;;-1.75;85.17;99961.80;1782149;80;20423;-66
2022/03/06 02:51:51;;;;;;;;;;;;;;;-1.72;84.95;99959.98;1770086;80;20067;-66
2022/03/06 02:54:17;;;;;;;;;;;;;;;-1.72;84.93;99961.33;1753750;80;20118;-66
2022/03/06 02:56:44;;;;;;;;;;;;;;;-1.69;84.90;99960.88;1753810;82;20454;-66
2022/03/06 02:59:10;;;;;;;;;;;;;;;-1.67;84.81;99962.30;1753886;82;21127;-67
2022/03/06 03:01:40;;;;;;;;;;;;;;;-1.64;84.76;99958.33;1754170;82;20134;-67
2022/03/06 03:04:04;;;;;;;;;;;;;;;-1.62;84.80;99968.34;1753350;82;20292;-67
2022/03/06 03:06:31;;;;;;;;;;;;;;;-1.62;85.00;99965.66;1753951;82;20978;-67
2022/03/06 03:08:57;;;;;;;;;;;;;;;-1.60;85.58;99975.67;1754286;82;20477;-67
2022/03/06 03:11:25;;;;;;;;;;;;;;;-1.61;85.70;99978.06;1754392;82;20116;-67
2022/03/06 03:13:52;;;;;;;;;;;;;;;-1.61;85.64;99977.25;1753859;80;20107;-66
2022/03/06 03:16:19;;;;;;;;;;;;;;;-1.61;85.95;99970.52;1753953;81;20123;-67
2022/03/06 03:18:45;;;;;;;;;;;;;;;-1.66;85.53;99974.70;1754050;82;20083;-67
2022/03/06 03:21:12;;;;;;;;;;;;;;;-1.73;85.70;99974.48;1754100;82;20087;-66
2022/03/06 03:23:38;;;;;;;;;;;;;;;-1.78;86.18;99977.05;1753934;82;21121;-65
2022/03/06 03:26:06;;;;;;;;;;;;;;;-1.81;86.60;99972.13;1754174;82;20445;-66
2022/03/06 03:28:32;;;;;;;;;;;;;;;-1.83;87.01;99970.18;1753961;82;20136;-66
2022/03/06 03:30:58;;;;;;;;;;;;;;;-1.89;87.37;99971.89;1753999;82;20115;-66
2022/03/06 03:33:25;;;;;;;;;;;;;;;-1.92;87.66;99970.17;1755180;80;20075;-65
2022/03/06 03:35:51;;;;;;;;;;;;;;;-1.94;87.74;99972.27;1765765;80;21147;-65
2022/03/06 03:38:18;;;;;;;;;;;;;;;-1.96;87.79;99969.80;1784021;80;20124;-65
2022/03/06 03:40:44;;;;;;;;;;;;;;;-1.94;87.89;99965.55;1784858;80;20096;-66
2022/03/06 03:43:11;;;;;;;;;;;;;;;-1.93;87.91;99966.66;1784327;80;20195;-66
2022/03/06 03:45:38;;;;;;;;;;;;;;;-1.91;87.96;99965.92;1784499;80;20081;-66
2022/03/06 03:48:04;;;;;;;;;;;;;;;-1.91;87.99;99965.92;1784286;80;21156;-66
2022/03/06 03:50:32;;;;;;;;;;;;;;;-1.91;87.97;99962.41;1784258;80;20115;-66
2022/03/06 03:52:58;;;;;;;;;;;;;;;-1.92;87.98;99959.41;1784378;79;20136;-66
2022/03/06 03:55:25;;;;;;;;;;;;;;;-1.91;87.99;99963.75;1775768;80;20084;-66
2022/03/06 03:57:51;;;;;;;;;;;;;;;-1.94;88.14;99973.09;1780308;80;20431;-66
2022/03/06 04:00:17;;;;;;;;;;;;;;;-1.94;88.96;99974.96;1781743;80;21089;-66
2022/03/06 04:02:44;;;;;;;;;;;;;;;-1.94;89.06;99977.65;1784495;80;20104;-66
2022/03/06 04:05:10;;;;;;;;;;;;;;;-1.97;89.01;99976.23;1784304;79;20116;-66
2022/03/06 04:07:36;;;;;;;;;;;;;;;-2.00;89.08;99976.16;1784875;80;20182;-66
2022/03/06 04:10:04;;;;;;;;;;;;;;;-2.04;89.13;99974.12;1784404;79;20096;-66
2022/03/06 04:12:30;;;;;;;;;;;;;;;-2.10;89.58;99983.09;1784450;79;20698;-67
2022/03/06 04:14:57;;;;;;;;;;;;;;;-2.12;89.65;99986.00;1784276;80;20524;-67
2022/03/06 04:17:24;;;;;;;;;;;;;;;-2.16;89.84;99984.80;1784473;80;20095;-67
2022/03/06 04:19:50;;;;;;;;;;;;;;;-2.15;90.14;99995.86;1784244;80;20619;-67
2022/03/06 04:22:17;;;;;;;;;;;;;;;-2.15;90.31;99996.38;1784568;80;20466;-67
2022/03/06 04:24:44;;;;;;;;;;;;;;;-2.13;90.60;99992.43;1784399;80;21911;-68
2022/03/06 04:27:10;;;;;;;;;;;;;;;-2.11;90.49;99991.69;1784102;80;20096;-67
2022/03/06 04:29:37;;;;;;;;;;;;;;;-2.12;90.45;99990.04;1784413;80;20143;-67
2022/03/06 04:32:05;;;;;;;;;;;;;;;-2.14;90.53;99994.81;1784562;80;20293;-67
2022/03/06 04:34:31;;;;;;;;;;;;;;;-2.13;91.00;99999.67;1784491;80;20127;-66
2022/03/06 04:36:57;;;;;;;;;;;;;;;-2.09;91.12;99992.81;1784203;80;21073;-67
2022/03/06 04:39:23;;;;;;;;;;;;;;;-2.06;90.65;100001.78;1779151;80;20084;-67
2022/03/06 04:41:50;;;;;;;;;;;;;;;-2.07;90.45;100000.95;1775543;81;20117;-68
2022/03/06 04:44:17;;;;;;;;;;;;;;;-2.06;90.42;100001.78;1749388;81;20160;-67
2022/03/06 04:46:43;;;;;;;;;;;;;;;-2.08;90.46;100004.69;1775578;80;20097;-67
2022/03/06 04:49:10;;;;;;;;;;;;;;;-2.07;90.41;100002.30;1775585;80;21083;-67
2022/03/06 04:51:36;;;;;;;;;;;;;;;-2.06;90.50;99998.56;1775165;79;20188;-68
2022/03/06 04:54:03;;;;;;;;;;;;;;;-2.05;91.07;99997.52;1775498;80;20092;-68
2022/03/06 04:56:31;;;;;;;;;;;;;;;-2.04;90.95;100001.86;1775447;80;20491;-68
2022/03/06 04:58:57;;;;;;;;;;;;;;;-2.05;90.79;100006.94;1775458;79;20136;-68
2022/03/06 05:01:23;;;;;;;;;;;;;;;-2.04;90.75;100004.55;1772973;80;21051;-67
2022/03/06 05:03:51;;;;;;;;;;;;;;;-2.05;90.65;100004.25;1780368;80;20132;-68
2022/03/06 05:06:17;;;;;;;;;;;;;;;-2.06;90.67;100006.64;1783058;80;20127;-68
2022/03/06 05:08:45;;;;;;;;;;;;;;;-2.06;90.70;100010.67;1782533;80;20458;-67
2022/03/06 05:11:13;;;;;;;;;;;;;;;-2.03;90.72;100010.75;1782680;80;20199;-67
2022/03/06 05:13:40;;;;;;;;;;;;;;;-2.02;90.63;100009.19;1782597;79;21286;-66
2022/03/06 05:16:06;;;;;;;;;;;;;;;-2.01;90.63;100012.17;1782597;80;20422;-67
2022/03/06 05:18:32;;;;;;;;;;;;;;;-1.99;90.63;100011.95;1782577;80;20196;-66
2022/03/06 05:20:58;;;;;;;;;;;;;;;-1.97;90.69;100010.38;1782809;80;20144;-66
2022/03/06 05:23:25;;;;;;;;;;;;;;;-1.96;90.75;100006.13;1783252;80;20123;-65
2022/03/06 05:25:54;;;;;;;;;;;;;;;-1.92;90.73;100009.20;1782938;80;21135;-65
2022/03/06 05:28:19;;;;;;;;;;;;;;;-1.87;90.67;100008.00;1782740;80;20159;-66
2022/03/06 05:30:45;;;;;;;;;;;;;;;-1.81;90.55;100011.14;1782546;80;20084;-66
2022/03/06 05:33:12;;;;;;;;;;;;;;;-1.75;90.48;100006.22;1782635;80;20144;-66
2022/03/06 05:35:38;;;;;;;;;;;;;;;-1.70;90.32;100005.81;1783049;80;20081;-67
2022/03/06 05:38:04;;;;;;;;;;;;;;;-1.67;89.86;100006.70;1782443;80;21103;-67
2022/03/06 05:40:31;;;;;;;;;;;;;;;-1.65;89.57;100005.14;1783580;80;20089;-67
2022/03/06 05:42:58;;;;;;;;;;;;;;;-1.59;89.98;100000.73;1781450;80;20488;-67
2022/03/06 05:45:24;;;;;;;;;;;;;;;-1.49;90.07;100000.50;1778641;80;20630;-67
2022/03/06 05:47:50;;;;;;;;;;;;;;;-1.42;89.32;99992.34;1757659;80;20149;-67
2022/03/06 05:50:16;;;;;;;;;;;;;;;-1.38;89.14;99989.48;1783735;80;21100;-67
2022/03/06 05:52:42;;;;;;;;;;;;;;;-1.31;88.87;99994.79;1783140;80;20085;-67
2022/03/06 05:55:08;;;;;;;;;;;;;;;-1.29;88.33;99994.86;1783125;80;20080;-67
2022/03/06 05:57:35;;;;;;;;;;;;;;;-1.27;87.95;99992.77;1783568;80;20790;-67
2022/03/06 06:00:01;;;;;;;;;;;;;;;-1.23;87.72;99991.78;1783275;80;20112;-67
2022/03/06 06:02:30;;;;;;;;;;;;;;;-1.19;87.34;99992.97;1783288;80;21173;-69
2022/03/06 06:04:57;;;;;;;;;;;;;;;-1.17;86.90;100000.30;1783731;80;20116;-69
2022/03/06 06:07:25;;;;;;;;;;;;;;;-1.15;86.68;100000.34;1783587;79;20080;-69
2022/03/06 06:09:51;;;;;;;;;;;;;;;-1.11;86.81;99999.36;1784643;80;20112;-69
2022/03/06 06:12:18;;;;;;;;;;;;;;;-1.04;86.77;100001.44;1783615;80;20088;-70
2022/03/06 06:14:44;;;;;;;;;;;;;;;-0.99;86.33;100008.31;1783109;79;21115;-66
2022/03/06 06:17:11;;;;;;;;;;;;;;;-0.96;86.00;100009.72;1783102;80;20088;-67
2022/03/06 06:19:37;;;;;;;;;;;;;;;-0.96;85.42;100006.50;1783212;80;20123;-66
2022/03/06 06:22:04;;;;;;;;;;;;;;;-0.92;85.11;100009.56;1783303;80;20796;-67
2022/03/06 06:24:30;;;;;;;;;;;;;;;-0.90;84.99;100008.28;1783135;80;20092;-66
2022/03/06 06:26:57;;;;;;;;;;;;;;;-0.85;85.23;100007.07;1783242;80;21129;-65
2022/03/06 06:29:23;;;;;;;;;;;;;;;-0.78;84.87;100011.84;1783138;80;20112;-65
2022/03/06 06:31:52;;;;;;;;;;;;;;;-0.73;84.09;100009.80;1782747;80;20108;-66
2022/03/06 06:34:20;;;;;;;;;;;;;;;-0.71;83.14;100017.95;1782734;80;20914;-67
2022/03/06 06:36:48;;;;;;;;;;;;;;;-0.71;83.08;100017.13;1783411;80;20097;-66
2022/03/06 06:39:14;;;;;;;;;;;;;;;-0.65;82.56;100020.78;1783202;80;21767;-66
2022/03/06 06:41:42;;;;;;;;;;;;;;;-0.62;82.60;100013.05;1783073;80;20096;-66
2022/03/06 06:44:09;;;;;;;;;;;;;;;-0.50;83.63;100018.44;1783085;80;20115;-65
2022/03/06 06:46:36;;;;;;;;;;;;;;;-0.41;82.64;100021.92;1783366;80;20666;-65
2022/03/06 06:49:03;;;;;;;;;;;;;;;-0.36;81.76;100015.83;1783113;80;20128;-66
2022/03/06 06:51:31;;;;;;;;;;;;;;;-0.36;81.13;100025.27;1782944;80;20120;-66
2022/03/06 06:53:58;;;;;;;;;;;;;;;-0.36;80.71;100029.31;1783150;80;20085;-66
2022/03/06 06:56:24;;;;;;;;;;;;;;;-0.35;81.09;100031.78;1783662;80;20120;-67
2022/03/06 06:58:50;;;;;;;;;;;;;;;-0.31;81.04;100030.79;1783111;80;20612;-67
2022/03/06 07:01:17;;;;;;;;;;;;;;;-0.29;80.32;100028.68;1783128;80;20446;-67
2022/03/06 07:03:43;;;;;;;;;;;;;;;-0.33;79.92;100026.16;1783193;80;22353;-67
2022/03/06 07:06:10;;;;;;;;;;;;;;;-0.32;79.61;100024.27;1783107;80;20458;-67
2022/03/06 07:08:36;;;;;;;;;;;;;;;-0.31;79.21;100026.74;1783220;80;20096;-66
2022/03/06 07:11:03;;;;;;;;;;;;;;;-0.30;79.35;100027.03;1783208;80;20080;-67
2022/03/06 07:13:30;;;;;;;;;;;;;;;-0.28;79.25;100028.16;1783093;79;20124;-67
2022/03/06 07:15:58;;;;;;;;;;;;;;;-0.28;79.07;100026.80;1783069;80;21143;-67
2022/03/06 07:18:24;;;;;;;;;;;;;;;-0.23;80.36;100028.28;1781819;80;20402;-67
2022/03/06 07:20:52;;;;;;;;;;;;;;;-0.18;79.96;100031.09;1783033;80;20117;-67
2022/03/06 07:23:19;;;;;;;;;;;;;;;-0.08;79.74;100032.16;1783048;80;20120;-67
2022/03/06 07:25:45;;;;;;;;;;;;;;;-0.06;78.78;100032.75;1783019;80;20423;-67
2022/03/06 07:28:11;;;;;;;;;;;;;;;-0.01;78.82;100032.05;1783018;80;21115;-68
2022/03/06 07:30:38;;;;;;;;;;;;;;;0.05;78.80;100029.72;1781925;80;20180;-66
2022/03/06 07:33:04;;;;;;;;;;;;;;;0.11;78.41;100023.91;1782553;80;20092;-66
2022/03/06 07:35:31;;;;;;;;;;;;;;;0.13;77.81;100019.92;1783063;80;20144;-67
2022/03/06 07:37:58;;;;;;;;;;;;;;;0.20;76.16;100030.60;1783095;80;20120;-66
2022/03/06 07:40:24;;;;;;;;;;;;;;;0.20;75.23;100021.97;1783444;79;21091;-66
2022/03/06 07:42:52;;;;;;;;;;;;;;;0.22;74.42;100023.09;1783112;80;38383;-66
2022/03/06 07:45:18;;;;;;;;;;;;;;;0.27;74.15;100024.02;1782998;80;20149;-66
2022/03/06 07:47:45;;;;;;;;;;;;;;;0.37;74.11;100023.95;1783130;80;20411;-66
2022/03/06 07:50:12;;;;;;;;;;;;;;;0.46;72.95;100021.17;1783189;80;20112;-66
2022/03/06 07:52:39;;;;;;;;;;;;;;;0.50;73.04;100024.52;1783459;80;21738;-66
2022/03/06 07:55:06;;;;;;;;;;;;;;;0.56;72.56;100022.22;1783991;80;20113;-66
2022/03/06 07:57:33;;;;;;;;;;;;;;;0.63;71.81;100022.05;1783757;80;20471;-67
2022/03/06 08:00:00;;;;;;;;;;;;;;;0.71;70.85;100014.92;1785347;80;20756;-67
2022/03/06 08:02:26;;;;;;;;;;;;;;;0.78;69.88;100014.78;1784162;80;20167;-67
2022/03/06 08:04:52;;;;;;;;;;;;;;;0.84;69.42;100016.52;1783818;80;21233;-67
2022/03/06 08:07:18;;;;;;;;;;;;;;;0.90;69.07;100010.98;1783696;80;20108;-66
2022/03/06 08:09:44;;;;;;;;;;;;;;;0.95;69.06;100015.66;1784016;80;20084;-66
2022/03/06 08:12:11;;;;;;;;;;;;;;;0.92;68.90;100010.73;1783882;80;20420;-67
2022/03/06 08:14:40;;;;;;;;;;;;;;;0.93;69.51;100011.03;1784002;79;20485;-67
2022/03/06 08:17:06;;;;;;;;;;;;;;;0.97;69.56;100005.43;1771643;80;22063;-67
2022/03/06 08:19:33;;;;;;;;;;;;;;;1.06;68.52;100005.86;1754309;82;20405;-66
2022/03/06 08:21:59;;;;;;;;;;;;;;;1.17;66.82;100004.42;1754369;82;20449;-67
2022/03/06 08:24:25;;;;;;;;;;;;;;;1.23;67.36;99998.05;1754731;80;20098;-67
2022/03/06 08:26:51;;;;;;;;;;;;;;;1.30;66.36;99994.66;1759781;79;20093;-66
2022/03/06 08:29:18;;;;;;;;;;;;;;;1.36;65.22;99998.27;1774098;80;21108;-65
2022/03/06 08:31:44;;;;;;;;;;;;;;;1.36;64.46;99988.80;1783569;80;20097;-64
2022/03/06 08:34:12;;;;;;;;;;;;;;;1.35;64.31;99993.10;1780216;80;20124;-65
2022/03/06 08:36:38;;;;;;;;;;;;;;;1.37;64.49;99992.33;1784047;80;20089;-64
2022/03/06 08:39:04;;;;;;;;;;;;;;;1.40;64.04;99991.30;1784130;80;20435;-64
2022/03/06 08:41:31;;;;;;;;;;;;;;;1.42;64.07;99993.23;1785474;80;21138;-67
2022/03/06 08:43:57;;;;;;;;;;;;;;;1.39;62.69;99995.08;1785415;79;20152;-74
2022/03/06 08:46:23;;;;;;;;;;;;;;;1.32;63.61;99991.70;1785411;80;20422;-70
2022/03/06 08:48:50;;;;;;;;;;;;;;;1.33;63.92;99991.99;1785373;80;20169;-69
2022/03/06 08:51:17;;;;;;;;;;;;;;;1.38;64.61;99987.20;1785474;80;20092;-72
2022/03/06 08:53:45;;;;;;;;;;;;;;;1.43;64.68;99990.81;1778531;80;21049;-66
2022/03/06 08:56:11;;;;;;;;;;;;;;;1.52;64.65;99989.34;1777661;80;20486;-67
2022/03/06 08:58:37;;;;;;;;;;;;;;;1.58;63.64;99987.55;1777935;80;20128;-67
2022/03/06 09:01:03;;;;;;;;;;;;;;;1.59;62.64;99987.83;1778303;80;20097;-66
2022/03/06 09:03:30;;;;;;;;;;;;;;;1.55;62.31;99996.16;1777923;80;20081;-75
2022/03/06 09:05:56;;;;;;;;;;;;;;;1.49;62.15;99989.84;1777918;80;21117;-75
2022/03/06 09:08:24;;;;;;;;;;;;;;;1.40;61.90;99987.25;1777935;80;20458;-68
2022/03/06 09:10:50;;;;;;;;;;;;;;;1.33;62.20;99990.11;1778381;80;21027;-80
2022/03/06 09:13:17;;;;;;;;;;;;;;;1.32;62.53;99989.00;1777953;80;20405;-67
2022/03/06 09:15:47;;;;;;;;;;;;;;;1.32;62.34;99988.47;1778054;80;20410;-67
2022/03/06 09:18:15;;;;;;;;;;;;;;;1.37;61.65;99986.92;1777929;80;20543;-72
2022/03/06 09:20:42;;;;;;;;;;;;;;;1.41;60.79;99989.42;1777847;80;20081;-74
2022/03/06 09:23:10;;;;;;;;;;;;;;;1.44;61.26;99984.88;1777873;80;20097;-77
2022/03/06 09:25:39;;;;;;;;;;;;;;;1.44;61.18;99988.40;1777937;80;20136;-74
2022/03/06 09:28:05;;;;;;;;;;;;;;;1.37;61.88;99985.03;1778191;80;20104;-68
2022/03/06 09:30:33;;;;;;;;;;;;;;;1.32;61.91;99976.30;1777729;80;20080;-68
2022/03/06 09:33:01;;;;;;;;;;;;;;;1.31;59.30;99983.30;1777955;80;20419;-69
2022/03/06 09:35:28;;;;;;;;;;;;;;;1.21;58.82;99983.95;1777881;80;20116;-69
2022/03/06 09:37:54;;;;;;;;;;;;;;;1.15;60.31;99978.19;1777987;80;20085;-68
2022/03/06 09:40:20;;;;;;;;;;;;;;;1.18;60.97;99985.78;1775566;80;20120;-68
2022/03/06 09:42:48;;;;;;;;;;;;;;;1.23;61.10;99984.52;1719429;83;20105;-69
2022/03/06 09:45:16;;;;;;;;;;;;;;;1.22;60.40;99989.64;1736059;82;20082;-72
2022/03/06 09:47:43;;;;;;;;;;;;;;;1.15;60.08;99984.13;1749251;82;20095;-76
2022/03/06 09:50:10;;;;;;;;;;;;;;;1.02;59.75;99989.84;1762392;80;20489;-72
2022/03/06 09:52:37;;;;;;;;;;;;;;;0.94;60.84;99986.98;1765788;80;20092;-74
2022/03/06 09:55:06;;;;;;;;;;;;;;;0.92;62.29;99981.00;1738538;81;21126;-76
2022/03/06 09:57:33;;;;;;;;;;;;;;;0.93;61.94;99986.17;1760748;80;20124;-73
2022/03/06 10:00:01;;;;;;;;;;;;;;;0.91;59.37;99988.30;1751477;79;20086;-67
2022/03/06 10:02:27;;;;;;;;;;;;;;;0.83;58.69;99986.50;1763287;80;20420;-79
2022/03/06 10:04:53;;;;;;;;;;;;;;;0.75;57.86;99982.83;1763189;80;20082;-78
2022/03/06 10:07:21;;;;;;;;;;;;;;;0.70;58.39;99981.38;1741179;81;21504;-78
2022/03/06 10:09:52;;;;;;;;;;;;;;;0.68;57.96;99976.75;1733137;83;20200;-68
2022/03/06 10:12:29;;;;;;;;;;;;;;;0.68;57.93;99978.92;1732925;83;20153;-68
2022/03/06 10:15:03;;;;;;;;;;;;;;;0.70;58.06;99977.33;1732917;83;20151;-68
2022/03/06 10:17:31;;;;;;;;;;;;;;;0.73;58.68;99971.45;1732925;81;20430;-68
2022/03/06 10:20:06;;;;;;;;;;;;;;;0.78;58.67;99962.91;1732860;82;20572;-77
2022/03/06 10:22:37;;;;;;;;;;;;;;;0.79;58.36;99970.48;1734328;81;20152;-82
2022/03/06 10:25:06;;;;;;;;;;;;;;;0.78;58.54;99964.25;1780672;80;20068;-75
2022/03/06 10:27:46;;;;;;;;;;;;;;;0.78;58.73;99965.61;1780454;79;20116;-78
2022/03/06 10:30:28;;;;;;;;;;;;;;;0.79;60.02;99967.78;1777702;79;20435;-78
2022/03/06 10:32:57;;;;;;;;;;;;;;;0.79;60.11;99966.42;1779420;80;21986;-73
2022/03/06 10:35:35;;;;;;;;;;;;;;;0.82;59.70;99965.95;1783884;79;20116;-72
2022/03/06 10:38:21;;;;;;;;;;;;;;;0.78;59.17;99959.38;1782666;80;20116;-77
2022/03/06 10:40:48;;;;;;;;;;;;;;;0.74;59.38;99959.05;1784569;80;20104;-67
2022/03/06 10:43:24;;;;;;;;;;;;;;;0.72;59.49;99953.05;1784494;80;20123;-67
2022/03/06 10:45:53;;;;;;;;;;;;;;;0.73;59.59;99959.28;1784595;80;21185;-67
2022/03/06 10:48:21;;;;;;;;;;;;;;;0.73;59.43;99957.93;1782400;80;20112;-67
2022/03/06 10:50:48;;;;;;;;;;;;;;;0.70;59.55;99961.11;1758486;80;20096;-67
2022/03/06 10:53:20;;;;;;;;;;;;;;;0.70;60.51;99957.06;1784197;80;20135;-67
2022/03/06 10:55:47;;;;;;;;;;;;;;;0.74;59.60;99954.98;1780897;79;20673;-72
2022/03/06 10:58:14;;;;;;;;;;;;;;;0.76;59.53;99952.86;1783343;79;21120;-73
2022/03/06 11:00:41;;;;;;;;;;;;;;;0.79;59.96;99948.86;1783886;80;20105;-76
2022/03/06 11:03:10;;;;;;;;;;;;;;;0.84;59.48;99949.77;1780548;80;20155;-67
2022/03/06 11:05:37;;;;;;;;;;;;;;;0.85;58.82;99950.59;1783217;80;20120;-66
2022/03/06 11:08:05;;;;;;;;;;;;;;;0.84;59.19;99951.66;1783129;80;20109;-67
2022/03/06 11:10:32;;;;;;;;;;;;;;;0.86;59.06;99947.65;1783098;80;20778;-68
2022/03/06 11:12:58;;;;;;;;;;;;;;;0.88;58.05;99942.00;1782752;80;20080;-67
2022/03/06 11:15:25;;;;;;;;;;;;;;;0.86;56.88;99942.24;1784620;80;20080;-67
2022/03/06 11:17:55;;;;;;;;;;;;;;;0.83;57.62;99945.96;1783968;80;20108;-67
2022/03/06 11:20:23;;;;;;;;;;;;;;;0.83;57.36;99938.67;1783360;80;20092;-67
2022/03/06 11:22:54;;;;;;;;;;;;;;;0.82;57.35;99933.52;1783148;80;21103;-67
2022/03/06 11:25:23;;;;;;;;;;;;;;;0.80;57.69;99933.75;1781852;80;20129;-67
2022/03/06 11:28:26;;;;;;;;;;;;;;;0.82;58.17;99933.52;1776147;80;20090;-68
2022/03/06 11:30:53;;;;;;;;;;;;;;;0.85;58.06;99930.32;1773732;80;20147;-67
2022/03/06 11:33:24;;;;;;;;;;;;;;;0.84;58.07;99930.86;1781572;80;20117;-67
2022/03/06 11:35:53;;;;;;;;;;;;;;;0.84;57.84;99928.69;1783200;80;21236;-68
2022/03/06 11:38:21;;;;;;;;;;;;;;;0.82;58.84;99927.58;1782201;80;20155;-68
2022/03/06 11:40:53;;;;;;;;;;;;;;;0.81;58.65;99922.41;1783234;79;20221;-67
2022/03/06 11:43:35;;;;;;;;;;;;;;;0.78;58.54;99926.95;1783098;80;20165;-68
2022/03/06 11:46:09;;;;;;;;;;;;;;;0.70;57.69;99925.45;1783260;80;20145;-68
2022/03/06 11:48:40;;;;;;;;;;;;;;;0.59;58.21;99924.44;1783298;80;21133;-68
2022/03/06 11:51:22;;;;;;;;;;;;;;;0.54;58.57;99920.85;1778556;80;20120;-67
2022/03/06 11:54:05;;;;;;;;;;;;;;;0.42;58.77;99912.79;1783451;80;20120;-69
2022/03/06 11:56:35;;;;;;;;;;;;;;;0.31;59.48;99917.70;1782858;80;20204;-68
2022/03/06 11:59:12;;;;;;;;;;;;;;;0.25;60.12;99912.72;1783966;80;20116;-68
2022/03/06 12:01:44;;;;;;;;;;;;;;;0.24;60.68;99907.56;1784210;80;21161;-68
2022/03/06 12:04:13;;;;;;;;;;;;;;;0.24;61.82;99904.33;1783725;80;20092;-67
2022/03/06 12:06:46;;;;;;;;;;;;;;;0.27;61.22;99899.80;1784106;80;20112;-67
2022/03/06 12:09:20;;;;;;;;;;;;;;;0.29;61.24;99898.22;1770130;79;20159;-67
2022/03/06 12:11:48;;;;;;;;;;;;;;;0.34;62.50;99895.61;1785390;80;20072;-68
2022/03/06 12:14:31;;;;;;;;;;;;;;;0.38;61.37;99891.38;1785162;79;21224;-68
2022/03/06 12:17:07;;;;;;;;;;;;;;;0.37;60.69;99886.21;1784719;80;20171;-67
2022/03/06 12:19:45;;;;;;;;;;;;;;;0.37;60.82;99880.81;1783363;80;20095;-67
2022/03/06 12:22:22;;;;;;;;;;;;;;;0.35;60.24;99885.10;1782862;80;20635;-66
2022/03/06 12:25:14;;;;;;;;;;;;;;;0.38;60.36;99881.10;1779268;80;20156;-68
2022/03/06 12:27:44;;;;;;;;;;;;;;;0.41;59.98;99877.39;1777693;80;21159;-67
2022/03/06 12:30:11;;;;;;;;;;;;;;;0.51;62.13;99867.30;1775787;80;20138;-66
2022/03/06 12:32:40;;;;;;;;;;;;;;;0.61;60.53;99872.87;1768496;79;20124;-68
2022/03/06 12:35:11;;;;;;;;;;;;;;;0.66;60.19;99862.97;1772262;80;20142;-67
2022/03/06 12:37:52;;;;;;;;;;;;;;;0.73;59.98;99870.92;1753978;82;20150;-68
2022/03/06 12:40:24;;;;;;;;;;;;;;;0.80;59.24;99869.42;1775004;80;21094;-67
2022/03/06 12:43:03;;;;;;;;;;;;;;;0.83;59.47;99866.23;1784980;80;20080;-67
2022/03/06 12:45:39;;;;;;;;;;;;;;;0.89;59.19;99869.31;1798188;79;20477;-67
2022/03/06 12:48:07;;;;;;;;;;;;;;;0.93;58.90;99862.35;1803028;79;20450;-67
2022/03/06 12:50:36;;;;;;;;;;;;;;;0.96;59.09;99861.33;1810093;79;20066;-67
2022/03/06 12:53:05;;;;;;;;;;;;;;;0.99;59.05;99861.38;1782923;79;20079;-67